sensor_id;sensor_type;location;lat;lon;timestamp;pressure;altitude;pressure_sealevel;temperature;humidity
70458;BME280;57919;56.194;95.716;2023-06-19T00:03:25;98114.72;;;21.32;64.07
70458;BME280;57919;56.194;95.716;2023-06-19T00:13:27;98140.13;;;22.36;59.42
70458;BME280;57919;56.194;95.716;2023-06-19T00:23:29;98138.47;;;23.28;56.12
70458;BME280;57919;56.194;95.716;2023-06-19T00:33:31;98133.22;;;24.40;52.42
70458;BME280;57919;56.194;95.716;2023-06-19T00:43:33;98130.47;;;24.96;49.54
70458;BME280;57919;56.194;95.716;2023-06-19T00:53:35;98129.94;;;24.77;48.69
70458;BME280;57919;56.194;95.716;2023-06-19T01:03:38;98140.41;;;24.58;46.42
70458;BME280;57919;56.194;95.716;2023-06-19T01:14:06;98155.91;;;23.97;46.38
70458;BME280;57919;56.194;95.716;2023-06-19T01:24:05;98167.75;;;23.81;46.84
70458;BME280;57919;56.194;95.716;2023-06-19T01:34:08;98166.47;;;24.79;43.76
70458;BME280;57919;56.194;95.716;2023-06-19T01:44:12;98169.59;;;26.03;41.86
70458;BME280;57919;56.194;95.716;2023-06-19T01:54:14;98186.91;;;26.69;39.13
70458;BME280;57919;56.194;95.716;2023-06-19T02:04:16;98189.06;;;27.37;38.14
70458;BME280;57919;56.194;95.716;2023-06-19T02:14:18;98192.97;;;27.35;37.37
70458;BME280;57919;56.194;95.716;2023-06-19T02:24:22;98200.25;;;27.99;35.39
70458;BME280;57919;56.194;95.716;2023-06-19T02:34:24;98192.47;;;28.01;35.31
70458;BME280;57919;56.194;95.716;2023-06-19T02:44:26;98208.84;;;27.45;35.67
70458;BME280;57919;56.194;95.716;2023-06-19T02:54:28;98206.75;;;27.20;34.59
70458;BME280;57919;56.194;95.716;2023-06-19T03:04:29;98197.44;;;27.94;33.98
70458;BME280;57919;56.194;95.716;2023-06-19T03:48:01;98199.06;;;27.32;31.51
70458;BME280;57919;56.194;95.716;2023-06-19T03:58:04;98212.97;;;27.85;31.16
70458;BME280;57919;56.194;95.716;2023-06-19T04:08:07;98209.44;;;28.10;30.78
70458;BME280;57919;56.194;95.716;2023-06-19T04:18:10;98214.34;;;28.75;30.75
70458;BME280;57919;56.194;95.716;2023-06-19T04:28:12;98207.09;;;28.64;30.13
70458;BME280;57919;56.194;95.716;2023-06-19T04:38:15;98221.50;;;27.68;29.92
70458;BME280;57919;56.194;95.716;2023-06-19T04:48:17;98221.78;;;27.24;30.31
70458;BME280;57919;56.194;95.716;2023-06-19T04:58:19;98215.72;;;26.15;30.35
70458;BME280;57919;56.194;95.716;2023-06-19T05:08:22;98213.25;;;27.36;29.16
70458;BME280;57919;56.194;95.716;2023-06-19T05:18:24;98210.00;;;27.54;28.71
70458;BME280;57919;56.194;95.716;2023-06-19T05:28:26;98211.41;;;28.14;28.10
70458;BME280;57919;56.194;95.716;2023-06-19T05:38:28;98208.72;;;28.45;26.14
70458;BME280;57919;56.194;95.716;2023-06-19T05:48:46;98196.41;;;28.20;25.35
70458;BME280;57919;56.194;95.716;2023-06-19T05:58:48;98199.31;;;27.73;26.39
70458;BME280;57919;56.194;95.716;2023-06-19T06:08:50;98200.66;;;27.23;27.15
70458;BME280;57919;56.194;95.716;2023-06-19T06:18:56;98186.22;;;26.03;28.21
70458;BME280;57919;56.194;95.716;2023-06-19T06:28:58;98189.16;;;27.52;27.89
70458;BME280;57919;56.194;95.716;2023-06-19T06:39:00;98208.69;;;26.88;27.60
70458;BME280;57919;56.194;95.716;2023-06-19T06:49:02;98190.78;;;24.94;29.23
70458;BME280;57919;56.194;95.716;2023-06-19T06:59:04;98183.72;;;25.58;29.15
70458;BME280;57919;56.194;95.716;2023-06-19T07:09:06;98186.78;;;25.40;29.46
70458;BME280;57919;56.194;95.716;2023-06-19T07:19:08;98185.84;;;24.62;30.25
70458;BME280;57919;56.194;95.716;2023-06-19T07:29:10;98180.41;;;24.67;30.37
70458;BME280;57919;56.194;95.716;2023-06-19T07:39:12;98175.78;;;24.39;30.29
70458;BME280;57919;56.194;95.716;2023-06-19T07:49:14;98174.88;;;25.01;29.83
70458;BME280;57919;56.194;95.716;2023-06-19T07:59:17;98178.38;;;26.22;28.81
70458;BME280;57919;56.194;95.716;2023-06-19T08:09:19;98176.66;;;27.07;28.29
70458;BME280;57919;56.194;95.716;2023-06-19T08:19:20;98174.59;;;27.29;27.65
70458;BME280;57919;56.194;95.716;2023-06-19T08:29:23;98163.56;;;26.97;27.97
70458;BME280;57919;56.194;95.716;2023-06-19T08:39:24;98170.75;;;26.61;27.53
70458;BME280;57919;56.194;95.716;2023-06-19T08:49:34;98168.13;;;26.50;27.74
70458;BME280;57919;56.194;95.716;2023-06-19T08:59:36;98173.38;;;26.46;27.67
70458;BME280;57919;56.194;95.716;2023-06-19T09:09:44;98155.72;;;26.30;27.38
70458;BME280;57919;56.194;95.716;2023-06-19T09:19:52;98154.28;;;25.52;28.26
70458;BME280;57919;56.194;95.716;2023-06-19T09:29:54;98150.22;;;24.32;29.13
70458;BME280;57919;56.194;95.716;2023-06-19T09:39:59;98148.41;;;23.81;30.11
70458;BME280;57919;56.194;95.716;2023-06-19T09:50:03;98140.75;;;24.28;29.27
70458;BME280;57919;56.194;95.716;2023-06-19T10:00:08;98138.13;;;23.93;29.30
70458;BME280;57919;56.194;95.716;2023-06-19T10:10:25;98124.72;;;23.45;29.99
70458;BME280;57919;56.194;95.716;2023-06-19T10:30:33;98139.88;;;23.31;29.60
70458;BME280;57919;56.194;95.716;2023-06-19T10:40:38;98137.34;;;23.41;30.46
70458;BME280;57919;56.194;95.716;2023-06-19T10:50:42;98140.19;;;23.06;30.34
70458;BME280;57919;56.194;95.716;2023-06-19T11:00:44;98136.56;;;22.59;30.65
70458;BME280;57919;56.194;95.716;2023-06-19T11:10:46;98125.63;;;22.40;31.63
70458;BME280;57919;56.194;95.716;2023-06-19T11:20:50;98131.50;;;22.32;31.73
70458;BME280;57919;56.194;95.716;2023-06-19T11:31:00;98132.19;;;22.16;32.03
70458;BME280;57919;56.194;95.716;2023-06-19T11:41:03;98130.97;;;21.82;33.10
70458;BME280;57919;56.194;95.716;2023-06-19T11:51:05;98126.03;;;21.72;32.99
70458;BME280;57919;56.194;95.716;2023-06-19T12:01:09;98135.25;;;21.48;33.14
70458;BME280;57919;56.194;95.716;2023-06-19T12:11:11;98121.59;;;21.23;34.09
70458;BME280;57919;56.194;95.716;2023-06-19T12:21:15;98115.31;;;20.98;34.75
70458;BME280;57919;56.194;95.716;2023-06-19T12:31:17;98118.72;;;20.75;35.79
70458;BME280;57919;56.194;95.716;2023-06-19T12:41:20;98124.88;;;20.52;36.25
70458;BME280;57919;56.194;95.716;2023-06-19T12:51:23;98134.72;;;20.35;36.41
70458;BME280;57919;56.194;95.716;2023-06-19T13:01:25;98125.81;;;20.14;36.81
70458;BME280;57919;56.194;95.716;2023-06-19T13:11:27;98126.56;;;19.96;37.22
70458;BME280;57919;56.194;95.716;2023-06-19T13:21:29;98115.63;;;19.90;37.58
70458;BME280;57919;56.194;95.716;2023-06-19T13:31:31;98093.16;;;19.75;38.03
70458;BME280;57919;56.194;95.716;2023-06-19T13:41:33;98102.13;;;19.50;38.96
70458;BME280;57919;56.194;95.716;2023-06-19T13:51:36;98106.25;;;19.28;39.84
70458;BME280;57919;56.194;95.716;2023-06-19T14:01:39;98108.47;;;18.99;40.24
70458;BME280;57919;56.194;95.716;2023-06-19T14:11:43;98113.19;;;18.73;41.18
70458;BME280;57919;56.194;95.716;2023-06-19T14:21:45;98114.06;;;18.40;42.09
70458;BME280;57919;56.194;95.716;2023-06-19T14:31:47;98106.28;;;17.97;43.40
70458;BME280;57919;56.194;95.716;2023-06-19T14:41:51;98130.44;;;17.67;44.31
70458;BME280;57919;56.194;95.716;2023-06-19T14:51:54;98133.06;;;17.34;45.13
70458;BME280;57919;56.194;95.716;2023-06-19T15:01:58;98127.06;;;17.04;45.52
70458;BME280;57919;56.194;95.716;2023-06-19T15:12:00;98130.94;;;16.82;45.87
70458;BME280;57919;56.194;95.716;2023-06-19T15:22:02;98125.53;;;16.61;46.40
70458;BME280;57919;56.194;95.716;2023-06-19T15:32:04;98144.38;;;16.28;47.62
70458;BME280;57919;56.194;95.716;2023-06-19T15:42:07;98141.38;;;15.95;48.96
70458;BME280;57919;56.194;95.716;2023-06-19T15:52:09;98142.84;;;15.55;49.99
70458;BME280;57919;56.194;95.716;2023-06-19T16:02:12;98134.94;;;15.24;51.13
70458;BME280;57919;56.194;95.716;2023-06-19T16:12:14;98145.69;;;14.96;51.95
70458;BME280;57919;56.194;95.716;2023-06-19T16:22:15;98154.34;;;14.70;52.90
70458;BME280;57919;56.194;95.716;2023-06-19T16:32:17;98147.94;;;14.48;53.47
70458;BME280;57919;56.194;95.716;2023-06-19T16:42:19;98126.97;;;14.34;53.71
70458;BME280;57919;56.194;95.716;2023-06-19T16:52:24;98141.78;;;14.31;53.78
70458;BME280;57919;56.194;95.716;2023-06-19T17:02:27;98132.97;;;14.29;53.96
70458;BME280;57919;56.194;95.716;2023-06-19T17:12:30;98121.34;;;14.35;53.87
70458;BME280;57919;56.194;95.716;2023-06-19T17:22:35;98120.00;;;14.16;54.43
70458;BME280;57919;56.194;95.716;2023-06-19T17:32:37;98115.56;;;14.01;55.07
70458;BME280;57919;56.194;95.716;2023-06-19T17:42:40;98101.28;;;13.84;55.72
70458;BME280;57919;56.194;95.716;2023-06-19T17:52:42;98094.69;;;13.78;56.19
70458;BME280;57919;56.194;95.716;2023-06-19T18:02:44;98085.97;;;13.68;56.67
70458;BME280;57919;56.194;95.716;2023-06-19T18:12:47;98061.50;;;13.45;57.87
70458;BME280;57919;56.194;95.716;2023-06-19T18:22:49;98060.06;;;13.35;58.09
70458;BME280;57919;56.194;95.716;2023-06-19T18:32:51;98057.81;;;13.15;59.09
70458;BME280;57919;56.194;95.716;2023-06-19T18:42:53;98053.16;;;13.01;59.59
70458;BME280;57919;56.194;95.716;2023-06-19T18:52:55;98049.81;;;12.91;59.93
70458;BME280;57919;56.194;95.716;2023-06-19T19:02:57;98049.38;;;12.79;60.37
70458;BME280;57919;56.194;95.716;2023-06-19T19:13:00;98027.56;;;12.65;61.15
70458;BME280;57919;56.194;95.716;2023-06-19T19:23:02;98031.00;;;12.58;61.31
70458;BME280;57919;56.194;95.716;2023-06-19T19:33:03;98027.13;;;12.53;61.29
70458;BME280;57919;56.194;95.716;2023-06-19T19:43:05;98018.97;;;12.53;61.28
70458;BME280;57919;56.194;95.716;2023-06-19T19:53:07;98022.31;;;12.24;62.05
70458;BME280;57919;56.194;95.716;2023-06-19T20:03:10;98014.25;;;12.08;62.93
70458;BME280;57919;56.194;95.716;2023-06-19T20:13:12;98005.00;;;11.70;64.21
70458;BME280;57919;56.194;95.716;2023-06-19T20:23:13;98007.03;;;11.68;63.95
70458;BME280;57919;56.194;95.716;2023-06-19T20:33:15;97996.91;;;11.53;64.99
70458;BME280;57919;56.194;95.716;2023-06-19T20:43:17;97992.34;;;11.46;64.97
70458;BME280;57919;56.194;95.716;2023-06-19T20:53:19;97987.94;;;11.45;65.08
70458;BME280;57919;56.194;95.716;2023-06-19T21:03:21;97964.59;;;11.36;65.65
70458;BME280;57919;56.194;95.716;2023-06-19T21:13:23;97965.28;;;11.38;65.69
70458;BME280;57919;56.194;95.716;2023-06-19T21:23:25;97954.97;;;11.33;66.10
70458;BME280;57919;56.194;95.716;2023-06-19T21:33:27;97960.16;;;11.59;65.83
70458;BME280;57919;56.194;95.716;2023-06-19T21:43:32;97950.59;;;11.95;65.73
70458;BME280;57919;56.194;95.716;2023-06-19T21:53:34;97967.53;;;12.37;65.06
70458;BME280;57919;56.194;95.716;2023-06-19T22:03:36;97949.84;;;12.72;64.66
70458;BME280;57919;56.194;95.716;2023-06-19T22:13:38;97946.00;;;13.12;64.37
70458;BME280;57919;56.194;95.716;2023-06-19T22:23:41;97929.72;;;13.64;63.74
70458;BME280;57919;56.194;95.716;2023-06-19T22:33:43;97917.25;;;14.14;62.61
70458;BME280;57919;56.194;95.716;2023-06-19T22:43:44;97886.66;;;14.63;61.20
70458;BME280;57919;56.194;95.716;2023-06-19T22:53:47;97883.53;;;15.08;60.23
70458;BME280;57919;56.194;95.716;2023-06-19T23:03:49;97887.59;;;15.47;59.12
70458;BME280;57919;56.194;95.716;2023-06-19T23:13:51;97882.56;;;16.67;56.73
70458;BME280;57919;56.194;95.716;2023-06-19T23:23:53;97881.25;;;18.02;54.30
70458;BME280;57919;56.194;95.716;2023-06-19T23:33:55;97861.63;;;19.44;51.27
70458;BME280;57919;56.194;95.716;2023-06-19T23:44:00;97848.22;;;20.94;48.29
70458;BME280;57919;56.194;95.716;2023-06-19T23:54:02;97842.13;;;22.04;45.65
